No requereix especial atenció pel que fa al clima.   -   No hi ha Alarmes

Resums METAR propers

 

LEBL - Barcelona Airpor, Spain
Distància des de l'estació: SSE 30km
Actualització: 18/06/2018 05:00
Alguns núvols
Alguns núvols
 Vent del NO
Vent: NO 7 km/h
Temperatura: 19°C
Rosada: 15°C
Humitat: 78%
Baròmetre: 1020 hPa
Nuvolositat: Alguns núvols
Visibilitat: 10 km
Detalls nuvolositat: Alguns núvols 305 m
2018/06/18 03:00 LEBL 180300Z 31004KT 9999 FEW010 19/15 Q1020 NOSIG
LELL - Sabadell, Spain
Distància des de l'estació: ONO 14km
Actualització: 18/06/2018 05:00
Molt cobert
Molt cobert
 Vent del O
Vent: O 4 km/h
Temperatura: 19°C
Rosada: 17°C
Humitat: 88%
Baròmetre: 1021 hPa
Nuvolositat: Molt cobert
Visibilitat: 10 km
Detalls nuvolositat: Molt cobert 457 m
Molt cobert 610 m
2018/06/18 03:00 LELL 180300Z AUTO 28002KT 9999 BKN015/// BKN020/// 19/17 Q1021
 
LEGE - Girona/Costa Bra, Spain
Distància des de l'estació: NE 65km
Actualització: 18/06/2018 05:00
Parcialment cobert
Parcialment cobert
 Vent del calm
Vent: Calma
Temperatura: 16°C
Rosada: 15°C
Humitat: 94%
Baròmetre: 1020 hPa
Nuvolositat: Parcialment cobert
Visibilitat: 10 km
Detalls nuvolositat: Parcialment cobert 1067 m
2018/06/18 03:00 LEGE 180300Z 00000KT 9999 SCT035 16/15 Q1020
LERS - Reus (civ/Mil), Spain
Distància des de l'estació: OSO 96km
Actualització: 18/06/2018 05:00
Seré
Seré
 Vent del varies
Vent: varies 2 km/h
Temperatura: 18°C
Rosada: 14°C
Humitat: 78%
Baròmetre: 1021 hPa
Nuvolositat: Seré
Visibilitat: 10 km
2018/06/18 03:00 LERS 180300Z AUTO VRB01KT 9999 NCD 18/14 Q1021
 
LESU - Pirineus/La Seu, Spain
Distància des de l'estació: NO 121km
Actualització: 17/06/2018 19:00
NO actualitzat
Parcialment cobert
Parcialment cobert
 Vent del SSO
Vent: SSO 22 km/h
Temperatura: 24°C
Rosada: 13°C
Humitat: 50%
Baròmetre: 1019 hPa
Nuvolositat: Parcialment cobert
Visibilitat: 10 km
Detalls nuvolositat: Parcialment cobert 1524 m
2018/06/17 17:00 LESU 171700Z 21012KT 9999 SCT050 24/13 Q1019
LEDA - Lleida/Alguaire, Spain
Distància des de l'estació: ONO 146km
Actualització: 17/06/2018 18:00
NO actualitzat
Seré
Seré
 Vent del SO
Vent: SO 20 km/h
Temperatura: 28°C
Rosada: 10°C
Humitat: 32%
Baròmetre: 1019 hPa
Resum: Seré
Visibilitat: major de 10 km
2018/06/17 16:00 LEDA 171600Z 23011KT 190V270 CAVOK 28/10 Q1019
 
LFMP - Perpignan/Rivesa, France
Distància des de l'estació: NNE 150km
Actualització: 18/06/2018 05:00
Seré
Seré
 Vent del NO
Vent: NO 33 km/h
Temperatura: 19°C
Rosada: 12°C
Humitat: 64%
Baròmetre: 1020 hPa
Resum: Seré
Visibilitat: major de 10 km
2018/06/18 03:00 LFMP 180300Z AUTO 32018KT CAVOK 19/12 Q1020 BECMG 31015G25KT
LEPA - Palma De Mallorca, Spain
Distància des de l'estació: S 216km
Actualització: 18/06/2018 05:00
Alguns núvols
Alguns núvols
 Vent del varies
Vent: varies 4 km/h
Temperatura: 18°C
Rosada: 17°C
Humitat: 94%
Baròmetre: 1020 hPa
Nuvolositat: Alguns núvols
Visibilitat: 10 km
Detalls nuvolositat: Alguns núvols 792 m
2018/06/18 03:00 LEPA 180300Z VRB02KT 9999 FEW026 18/17 Q1020 NOSIG